createdAt,value
2023-03-07T00:05:29.205Z,76.06
2023-03-07T00:15:33.608Z,78.78
2023-03-07T00:25:37.021Z,79.59
2023-03-07T00:35:41.220Z,80.30
2023-03-07T00:45:44.980Z,80.16
2023-03-07T00:55:58.210Z,80.88
2023-03-07T01:06:04.108Z,80.77
2023-03-07T01:16:10.563Z,81.04
2023-03-07T01:26:14.675Z,81.33
2023-03-07T01:36:22.615Z,81.50
2023-03-07T01:46:42.508Z,81.07
2023-03-07T01:56:48.373Z,82.33
2023-03-07T02:06:51.785Z,81.96
2023-03-07T02:16:57.003Z,81.35
2023-03-07T02:27:02.939Z,81.79
2023-03-07T02:37:11.320Z,81.56
2023-03-07T02:47:16.262Z,82.05
2023-03-07T02:57:19.883Z,81.54
2023-03-07T03:07:24.386Z,82.25
2023-03-07T03:17:27.229Z,82.04
2023-03-07T03:27:33.106Z,82.15
2023-03-07T03:37:36.363Z,81.50
2023-03-07T03:47:42.257Z,80.99
2023-03-07T03:57:45.827Z,81.38
2023-03-07T04:07:52.321Z,81.16
2023-03-07T04:17:56.330Z,80.83
2023-03-07T04:28:00.907Z,79.96
2023-03-07T04:38:04.857Z,80.15
2023-03-07T04:48:10.241Z,79.45
2023-03-07T04:58:14.509Z,79.48
2023-03-07T05:08:19.469Z,79.39
2023-03-07T05:18:23.283Z,79.30
2023-03-07T05:28:30.491Z,78.06
2023-03-07T05:38:33.568Z,77.34
2023-03-07T05:48:38.087Z,76.52
2023-03-07T05:58:41.339Z,76.71
2023-03-07T06:08:47.105Z,76.17
2023-03-07T06:18:50.595Z,75.62
2023-03-07T06:28:55.079Z,75.23
2023-03-07T06:39:01.432Z,74.50
2023-03-07T06:49:06.469Z,73.86
2023-03-07T06:59:11.179Z,73.83
2023-03-07T07:09:15.899Z,73.50
2023-03-07T07:19:19.033Z,73.03
2023-03-07T07:29:26.022Z,72.67
2023-03-07T07:39:30.781Z,72.31
2023-03-07T07:49:35.810Z,72.84
2023-03-07T07:59:39.521Z,73.22
2023-03-07T08:09:45.680Z,73.25
2023-03-07T08:19:48.805Z,72.79
2023-03-07T08:29:53.526Z,75.44
2023-03-07T08:39:56.862Z,75.07
2023-03-07T08:50:05.922Z,73.52
2023-03-07T09:00:12.694Z,73.71
2023-03-07T09:10:21.235Z,73.12
2023-03-07T09:20:25.020Z,74.21
2023-03-07T09:30:30.080Z,74.79
2023-03-07T09:40:34.048Z,74.26
2023-03-07T09:50:49.881Z,73.82
2023-03-07T11:11:24.150Z,72.24
2023-03-07T11:21:31.081Z,72.29
2023-03-07T11:31:42.968Z,70.97
2023-03-07T11:41:49.382Z,70.69
2023-03-07T11:52:05.955Z,70.01
2023-03-07T12:02:40.158Z,70.23
2023-03-07T12:12:59.218Z,69.90
2023-03-07T12:23:15.428Z,70.02
2023-03-07T12:33:32.811Z,69.09
2023-03-07T12:43:44.541Z,69.71
2023-03-07T13:16:03.431Z,67.10
2023-03-07T13:26:12.531Z,68.07
2023-03-07T13:36:31.880Z,67.66
2023-03-07T13:46:56.439Z,67.51
2023-03-07T13:57:00.275Z,66.63
2023-03-07T14:07:13.374Z,66.55
2023-03-07T14:17:33.219Z,66.31
2023-03-07T14:27:53.213Z,66.62
2023-03-07T14:37:56.360Z,67.44
2023-03-07T14:48:17.925Z,77.08
2023-03-07T14:58:25.106Z,84.17
2023-03-07T15:08:33.576Z,87.84
2023-03-07T15:18:40.120Z,90.04
2023-03-07T15:28:45.377Z,90.91
2023-03-07T15:38:50.668Z,90.31
2023-03-07T15:48:56.567Z,87.88
2023-03-07T15:59:03.204Z,87.92
2023-03-07T16:09:08.676Z,88.19
2023-03-07T16:19:12.222Z,88.26
2023-03-07T16:29:19.473Z,87.25
2023-03-07T16:39:22.490Z,88.50
2023-03-07T16:49:27.236Z,89.13
2023-03-07T16:59:35.662Z,88.79
2023-03-07T17:09:40.126Z,90.02
2023-03-07T17:19:43.017Z,89.52
2023-03-07T17:29:50.999Z,89.20
2023-03-07T17:39:54.585Z,88.62
2023-03-07T17:49:59.853Z,89.75
2023-03-07T18:00:07.173Z,90.35
2023-03-07T18:10:17.027Z,90.31
2023-03-07T18:20:21.579Z,90.99
2023-03-07T18:30:26.747Z,91.30
2023-03-07T18:40:29.979Z,91.37
2023-03-07T18:50:34.501Z,91.90
2023-03-07T19:00:39.826Z,92.85
2023-03-07T19:10:45.145Z,93.67
2023-03-07T19:20:48.530Z,94.13
2023-03-07T19:30:54.270Z,94.68
2023-03-07T19:40:59.314Z,95.97
2023-03-07T19:51:04.724Z,97.34
2023-03-07T20:01:09.433Z,97.37
2023-03-07T20:11:16.190Z,96.77
2023-03-07T20:21:21.159Z,96.65
2023-03-07T20:31:25.917Z,95.83
2023-03-07T20:41:30.424Z,96.97
2023-03-07T20:51:37.289Z,95.06
2023-03-07T21:01:40.813Z,94.99
2023-03-07T21:11:46.748Z,94.76
2023-03-07T21:21:51.821Z,94.57
2023-03-07T21:31:56.353Z,94.74
2023-03-07T21:41:59.767Z,94.94
2023-03-07T21:52:05.336Z,94.21
2023-03-07T22:02:08.457Z,94.28
2023-03-07T22:12:12.974Z,94.13
2023-03-07T22:22:15.758Z,93.99
2023-03-07T22:32:20.137Z,94.62
2023-03-07T22:42:23.140Z,94.96
2023-03-07T22:52:27.826Z,94.94
2023-03-07T23:02:32.686Z,94.67
2023-03-07T23:12:37.158Z,95.71
2023-03-07T23:22:42.846Z,95.21
2023-03-07T23:32:48.220Z,95.12
2023-03-07T23:42:51.435Z,94.38
2023-03-07T23:52:55.752Z,95.66
